KCGC

Crystal River-Captain Tom Davis Field Airport

Crystal River, Florida, USA
METAR KCGC 231055Z AUTO 18004KT 10SM -RA SCT060 SCT080 BKN110 18/18 A3001 RMK AO2 P0001
Observed Flight Rules
Jan-23 @ 10:55 UTC (an hour ago) Visual Flight Rules
Wind Visibility Clouds Conditions
180° at 4 knots 10 miles
  • Scattered at 6,000' AGL
  • Scattered at 8,000' AGL
  • Broken at 11,000' AGL
  • Light Rain
Temperatures Readings Precipitation
Current 18°C / 64°F
Dewpoint 18°C / 64°F
Humidity 100%
Altimeter 30.01" Hg
Pressure 1016 hPa
Elevation 3
Current Rain 0.01
METAR KCGC 231055Z AUTO 18004KT 10SM -RA SCT060 SCT080 BKN110 18/18 A3001 RMK AO2 P0001
Observed Flight Rules
Jan-23 @ 10:55 UTC
(an hour ago)
VFR
Wind Visibility
180° at 4 knots 10 miles
Clouds
  • Scattered at 6,000' AGL
  • Scattered at 8,000' AGL
  • Broken at 11,000' AGL
Conditions
  • Light Rain
Temperature Dewpoint
18°C / 64°F 18°C / 64°F
Humidity Altimeter Pressure
100% 30.01" Hg 1016 hPa
Current Rain
0.01